Time;durP1;ratioP1;P1;durP2;ratioP2;P2;SDS_P1;SDS_P2;PMS_P1;PMS_P2;Temp;Humidity;BMP_temperature;BMP_pressure;BME280_temperature;BME280_humidity;BME280_pressure;Samples;Min_cycle;Max_cycle;Signal;HPM_P1;HPM_P2
2023/09/12 00:00:38;;;;;;;4.65;2.97;;;23.20;99.90;;;23.30;67.83;100841.84;6045540;22;106574;-72
2023/09/12 00:03:04;;;;;;;3.95;2.80;;;23.20;99.90;;;23.30;67.33;100841.84;6101729;22;97140;-72
2023/09/12 00:05:30;;;;;;;5.35;3.13;;;23.20;99.90;;;23.27;64.23;100845.63;6102157;22;97234;-71
2023/09/12 00:07:56;;;;;;;8.18;3.22;;;23.20;99.90;;;23.27;64.49;100848.31;6084938;22;99298;-72
2023/09/12 00:10:22;;;;;;;5.18;3.55;;;23.20;99.90;;;23.29;68.21;100846.38;6046373;22;99916;-72
2023/09/12 00:12:48;;;;;;;4.20;2.63;;;23.20;99.90;;;23.28;66.17;100846.47;6079704;22;97673;-72
2023/09/12 00:15:14;;;;;;;3.25;2.63;;;23.20;99.90;;;23.25;65.87;100849.44;6053851;22;97321;-72
2023/09/12 00:17:40;;;;;;;4.10;2.67;;;23.20;99.90;;;23.24;67.39;100848.59;6074835;22;97554;-72
2023/09/12 00:20:07;;;;;;;3.17;2.42;;;23.20;99.90;;;23.22;66.49;100850.56;6089696;22;97109;-72
2023/09/12 00:22:33;;;;;;;3.55;2.65;;;23.10;99.90;;;23.21;66.57;100853.38;6105121;22;97994;-72
2023/09/12 00:24:59;;;;;;;6.57;2.63;;;23.10;99.90;;;23.21;69.30;100837.25;6106075;22;97138;-72
2023/09/12 00:27:25;;;;;;;4.43;2.40;;;23.10;99.90;;;23.15;67.12;100833.25;6076357;22;102705;-72
2023/09/12 00:29:51;;;;;;;3.60;2.72;;;23.00;99.90;;;23.14;65.94;100831.50;6074137;22;97304;-72
2023/09/12 00:32:17;;;;;;;5.00;2.15;;;23.10;99.90;;;23.12;65.53;100822.72;6097100;22;103751;-72
2023/09/12 00:34:43;;;;;;;4.30;3.22;;;23.00;99.90;;;23.09;64.97;100818.47;6102321;22;99204;-71
2023/09/12 00:37:09;;;;;;;3.88;2.45;;;23.00;99.90;;;23.11;66.22;100815.63;6103363;22;97318;-72
2023/09/12 00:39:36;;;;;;;4.45;2.63;;;23.00;99.90;;;23.11;66.50;100815.63;6102102;22;97727;-72
2023/09/12 00:42:02;;;;;;;4.68;3.50;;;23.00;99.90;;;23.01;64.95;100804.84;6102607;22;97507;-72
2023/09/12 00:44:28;;;;;;;3.83;1.98;;;23.00;99.90;;;23.04;65.17;100796.50;6077085;22;99784;-72
2023/09/12 00:46:55;;;;;;;5.30;2.50;;;23.00;99.90;;;23.03;65.51;100788.56;6087732;22;97139;-72
2023/09/12 00:49:22;;;;;;;3.65;3.20;;;23.00;99.90;;;23.00;64.71;100792.38;6114211;22;97222;-72
2023/09/12 00:51:49;;;;;;;3.33;3.03;;;23.00;99.90;;;22.97;64.42;100781.84;6104039;22;102719;-72
2023/09/12 00:54:15;;;;;;;4.20;2.63;;;23.00;99.90;;;22.97;65.32;100781.00;6062315;22;100876;-72
2023/09/12 00:56:42;;;;;;;3.83;2.65;;;22.90;99.90;;;23.00;64.65;100780.72;6084737;22;96949;-72
2023/09/12 00:59:08;;;;;;;2.10;1.90;;;23.00;99.90;;;23.04;67.21;100790.25;6113823;22;97306;-72
2023/09/12 01:01:35;;;;;;;2.70;2.20;;;23.00;99.90;;;23.04;68.23;100787.56;6109432;22;99318;-72
2023/09/12 01:04:02;;;;;;;2.47;1.80;;;23.00;99.90;;;23.05;67.32;100795.50;6086079;22;97291;-72
2023/09/12 01:06:29;;;;;;;2.92;2.00;;;22.90;99.90;;;23.03;66.78;100802.00;6088197;22;96627;-72
2023/09/12 01:08:56;;;;;;;2.58;2.17;;;22.90;99.90;;;23.01;65.37;100801.28;6085461;22;96891;-72
2023/09/12 01:11:22;;;;;;;3.17;1.92;;;22.90;99.90;;;23.03;68.47;100797.47;6114095;22;97035;-72
2023/09/12 01:13:48;;;;;;;4.00;2.25;;;22.90;99.90;;;23.00;66.32;100796.88;6112239;22;102574;-72
2023/09/12 01:16:14;;;;;;;3.50;2.10;;;22.90;99.90;;;23.03;68.33;100797.47;6113735;22;97070;-72
2023/09/12 01:18:42;;;;;;;2.63;2.13;;;22.90;99.90;;;23.02;68.33;100790.41;6107348;22;97634;-72
2023/09/12 01:21:47;;;;;;;2.55;1.92;;;22.90;99.90;;;23.04;68.57;100795.63;6112396;22;97784;-72
2023/09/12 01:25:13;;;;;;;4.13;2.15;;;22.90;99.90;;;23.01;69.32;100790.53;6108145;22;102083;-72
2023/09/12 01:27:47;;;;;;;2.55;1.88;;;22.90;99.90;;;22.99;69.08;100796.00;6049068;23;97339;-72
2023/09/12 01:30:17;;;;;;;2.63;2.08;;;22.90;99.90;;;22.97;67.98;100795.28;5998331;23;97254;-72
2023/09/12 01:32:44;;;;;;;5.35;2.10;;;22.80;99.90;;;22.98;69.23;100799.69;6083369;22;97526;-72
2023/09/12 01:35:09;;;;;;;3.60;2.17;;;22.80;99.90;;;22.98;69.17;100814.97;6084129;22;98415;-72
2023/09/12 01:37:35;;;;;;;2.28;1.73;;;22.80;99.90;;;22.96;69.21;100827.72;6084819;22;97601;-72
2023/09/12 01:40:03;;;;;;;2.50;1.90;;;22.80;99.90;;;22.94;68.65;100837.75;6108607;22;97185;-72
2023/09/12 01:42:37;;;;;;;2.88;2.35;;;22.80;99.90;;;22.94;69.17;100845.81;6109960;22;98769;-72
2023/09/12 01:45:05;;;;;;;4.28;2.30;;;22.80;99.90;;;22.91;68.90;100835.31;6084086;22;96890;-72
2023/09/12 01:47:33;;;;;;;4.80;2.80;;;22.80;99.90;;;22.88;67.04;100825.69;6084989;22;97389;-72
2023/09/12 01:50:00;;;;;;;3.58;2.60;;;22.80;99.90;;;22.89;67.95;100827.38;6082516;22;96980;-71
2023/09/12 01:52:28;;;;;;;3.50;2.35;;;22.80;99.90;;;22.91;69.04;100822.72;6112320;22;107338;-72
2023/09/12 01:54:55;;;;;;;4.13;2.20;;;22.80;99.90;;;22.90;67.15;100807.56;6112381;22;101672;-72
2023/09/12 01:57:22;;;;;;;3.70;2.80;;;22.80;99.90;;;22.92;68.14;100799.38;6112968;22;97067;-72
2023/09/12 01:59:49;;;;;;;3.38;2.53;;;22.80;99.90;;;22.90;68.24;100796.81;6112824;22;97627;-71
2023/09/12 02:02:16;;;;;;;3.00;2.30;;;22.80;99.90;;;22.90;66.77;100793.28;6112765;22;97992;-72
2023/09/12 02:05:12;;;;;;;3.00;2.23;;;22.80;99.90;;;22.90;66.84;100788.75;6112081;22;98549;-72
2023/09/12 02:07:41;;;;;;;3.85;2.28;;;22.80;99.90;;;22.90;67.14;100779.84;6111434;22;97195;-72
2023/09/12 02:10:07;;;;;;;3.30;2.25;;;22.80;99.90;;;22.90;67.84;100779.84;6109101;22;98671;-72
2023/09/12 02:12:34;;;;;;;3.43;2.50;;;22.80;99.90;;;22.92;68.60;100788.63;6111799;22;98281;-72
2023/09/12 02:15:06;;;;;;;7.70;3.13;;;22.80;99.90;;;22.92;69.17;100799.38;6115127;22;96688;-72
2023/09/12 02:17:32;;;;;;;3.75;2.58;;;22.70;99.90;;;22.89;68.40;100805.03;6111810;22;97406;-72
2023/09/12 02:19:57;;;;;;;3.95;2.55;;;22.70;99.90;;;22.89;68.83;100799.63;6087283;22;97477;-72
2023/09/12 02:22:23;;;;;;;2.78;2.42;;;22.70;99.90;;;22.88;68.54;100814.94;6116591;22;99565;-72
2023/09/12 02:24:50;;;;;;;4.38;2.30;;;22.70;99.90;;;22.90;69.05;100828.25;6084781;22;97983;-72
2023/09/12 02:27:16;;;;;;;3.88;2.60;;;22.70;99.90;;;22.89;68.72;100823.84;6085083;22;97525;-72
2023/09/12 02:29:42;;;;;;;3.90;2.87;;;22.70;99.90;;;22.87;68.11;100828.50;6084969;22;97607;-71
2023/09/12 02:32:09;;;;;;;4.50;3.07;;;22.70;99.90;;;22.87;68.25;100840.13;6083990;22;97388;-72
2023/09/12 02:34:35;;;;;;;3.70;2.50;;;22.70;99.90;;;22.85;68.00;100842.91;6112576;22;97201;-72
2023/09/12 02:37:01;;;;;;;4.63;3.05;;;22.70;99.90;;;22.87;68.32;100844.66;6084661;22;97081;-72
2023/09/12 02:39:27;;;;;;;3.05;2.38;;;22.70;99.90;;;22.84;66.92;100845.72;6115433;22;96993;-71
2023/09/12 02:41:53;;;;;;;4.77;2.67;;;22.60;99.90;;;22.85;68.17;100848.28;6111719;22;97064;-72
2023/09/12 02:44:18;;;;;;;4.43;2.83;;;22.60;99.90;;;22.82;66.82;100843.16;6109631;22;97391;-71
2023/09/12 02:46:44;;;;;;;3.80;2.87;;;22.70;99.90;;;22.82;66.72;100832.41;6086598;22;96945;-72
2023/09/12 02:49:10;;;;;;;4.03;2.75;;;22.70;99.90;;;22.83;66.37;100828.75;6106987;22;97737;-72
2023/09/12 02:51:39;;;;;;;4.35;3.33;;;22.70;99.90;;;22.85;67.65;100836.69;6113148;22;98004;-72
2023/09/12 02:54:05;;;;;;;7.57;4.03;;;22.70;99.90;;;22.84;67.62;100835.81;6085537;22;97586;-72
2023/09/12 02:56:31;;;;;;;5.78;3.25;;;22.70;99.90;;;22.83;67.33;100827.88;6112045;22;97503;-72
2023/09/12 02:58:57;;;;;;;4.90;3.57;;;22.70;99.90;;;22.82;67.17;100827.03;6065084;22;97639;-71
2023/09/12 03:01:27;;;;;;;7.83;4.00;;;22.70;99.90;;;22.82;66.72;100816.28;6112610;22;101027;-72
2023/09/12 03:03:54;;;;;;;3.25;2.67;;;22.70;99.90;;;22.82;66.60;100812.69;6083492;22;98860;-72
2023/09/12 03:06:20;;;;;;;2.60;2.33;;;22.60;99.90;;;22.77;65.29;100796.97;6085027;22;97277;-72
2023/09/12 03:08:48;;;;;;;6.18;3.17;;;22.70;99.90;;;22.79;65.48;100800.38;6112252;22;97026;-72
2023/09/12 03:11:13;;;;;;;6.90;4.00;;;22.70;99.90;;;22.82;66.78;100789.38;6114311;22;98089;-72
2023/09/12 03:13:41;;;;;;;5.30;3.38;;;22.70;99.90;;;22.82;67.01;100786.69;6115503;22;97510;-72
2023/09/12 03:16:11;;;;;;;9.50;3.40;;;22.70;99.90;;;22.84;66.48;100786.56;6087369;22;96933;-72
2023/09/12 03:18:37;;;;;;;5.50;3.60;;;22.70;99.90;;;22.84;67.33;100790.09;6112510;22;97265;-72
2023/09/12 03:21:03;;;;;;;5.03;3.30;;;22.70;99.90;;;22.87;67.58;100796.22;6060853;22;100204;-72
2023/09/12 03:23:29;;;;;;;5.35;3.33;;;22.70;99.90;;;22.87;68.02;100790.84;6087102;22;97514;-72
2023/09/12 03:25:55;;;;;;;6.03;3.38;;;22.70;99.90;;;22.88;68.07;100795.25;6117826;22;98822;-71
2023/09/12 03:28:21;;;;;;;5.38;3.83;;;22.70;99.90;;;22.84;66.54;100790.09;6114740;22;96891;-72
2023/09/12 03:30:47;;;;;;;5.05;3.40;;;22.60;99.90;;;22.83;66.38;100785.72;6112135;22;97373;-72
2023/09/12 03:33:13;;;;;;;6.18;4.00;;;22.60;99.90;;;22.84;67.69;100783.88;6087209;22;97456;-72
2023/09/12 03:35:38;;;;;;;5.83;3.70;;;22.60;99.90;;;22.84;67.50;100787.41;6113175;22;97148;-72
2023/09/12 03:38:04;;;;;;;7.90;4.37;;;22.60;99.90;;;22.83;67.52;100785.72;6088775;22;97095;-72
2023/09/12 03:40:31;;;;;;;5.30;3.53;;;22.60;99.90;;;22.80;67.08;100779.72;6107483;22;97445;-72
2023/09/12 03:42:57;;;;;;;4.70;3.22;;;22.60;99.90;;;22.80;66.34;100775.19;6112738;22;98055;-52
2023/09/12 03:45:24;;;;;;;4.90;2.23;;;22.70;99.90;;;22.81;66.20;100771.50;6114895;22;96949;-53
2023/09/12 03:47:51;;;;;;;7.13;4.03;;;22.70;99.90;;;22.83;66.72;100768.72;6103570;22;97389;-48
2023/09/12 03:50:17;;;;;;;5.40;3.63;;;22.70;99.90;;;22.83;66.80;100769.56;6084799;23;97783;-51
2023/09/12 03:52:43;;;;;;;3.10;2.33;;;22.70;99.90;;;22.78;65.16;100763.72;6086913;23;97329;-51
2023/09/12 03:55:09;;;;;;;6.28;4.00;;;22.70;99.90;;;22.82;66.74;100767.88;6086519;23;97346;-51
2023/09/12 03:57:35;;;;;;;3.83;2.90;;;22.70;99.90;;;22.81;66.92;100760.75;6060071;22;97283;-49
2023/09/12 04:00:02;;;;;;;5.85;3.70;;;22.70;99.90;;;22.84;66.92;100765.06;6035861;23;99252;-49
2023/09/12 04:02:28;;;;;;;3.33;2.70;;;22.70;99.90;;;22.81;65.67;100765.28;6089561;23;97089;-47
2023/09/12 04:04:54;;;;;;;2.78;2.00;;;22.70;99.90;;;22.81;64.70;100759.91;6084221;23;97075;-50
2023/09/12 04:07:20;;;;;;;3.80;2.47;;;22.70;99.90;;;22.81;65.26;100759.91;6088032;23;97365;-52
2023/09/12 04:09:45;;;;;;;3.70;2.90;;;22.70;99.90;;;22.83;65.55;100758.81;6060210;23;97877;-53
2023/09/12 04:12:11;;;;;;;3.45;2.40;;;22.70;99.90;;;22.83;65.03;100758.81;6059890;23;98898;-48
2023/09/12 04:14:37;;;;;;;2.83;2.00;;;22.80;99.90;;;22.84;64.56;100756.97;6086668;23;96911;-51
2023/09/12 04:17:03;;;;;;;3.05;2.13;;;22.70;99.90;;;22.87;65.19;100750.53;6085493;22;97074;-52
2023/09/12 04:19:34;;;;;;;3.83;2.53;;;22.80;99.90;;;22.88;65.19;100754.91;6089828;23;96735;-53
2023/09/12 04:22:00;;;;;;;3.30;2.58;;;22.80;99.90;;;22.87;64.81;100758.59;6081211;22;101748;-50
2023/09/12 04:24:26;;;;;;;5.70;3.42;;;22.80;99.90;;;22.89;65.51;100756.63;6084936;22;101407;-51
2023/09/12 04:26:52;;;;;;;6.75;2.70;;;22.80;99.90;;;22.91;65.99;100754.63;6088693;23;97425;-52
2023/09/12 04:29:17;;;;;;;4.90;3.78;;;22.80;99.90;;;22.90;65.36;100752.94;6085888;22;96986;-47
2023/09/12 04:31:43;;;;;;;4.25;3.25;;;22.80;99.90;;;22.93;66.30;100756.22;6086884;23;99744;-47
2023/09/12 04:34:09;;;;;;;5.55;3.30;;;22.80;99.90;;;22.94;65.60;100763.28;6086039;23;96850;-48
2023/09/12 04:36:35;;;;;;;5.85;3.15;;;22.80;99.90;;;22.93;66.32;100752.66;6086417;23;97997;-51
2023/09/12 04:39:01;;;;;;;6.28;3.72;;;22.80;99.90;;;22.93;66.19;100752.66;6088728;23;97775;-51
2023/09/12 04:41:26;;;;;;;3.67;2.60;;;22.80;99.90;;;22.93;64.96;100747.28;6086046;23;97392;-51
2023/09/12 04:43:52;;;;;;;5.65;3.28;;;22.80;99.90;;;22.94;66.39;100747.16;6084438;23;98616;-51
2023/09/12 04:46:18;;;;;;;5.47;3.28;;;22.80;99.90;;;22.96;66.40;100752.41;6085789;23;97094;-50
2023/09/12 04:48:44;;;;;;;3.47;2.60;;;22.80;99.90;;;22.94;65.47;100757.06;6085157;22;102571;-49
2023/09/12 04:51:09;;;;;;;3.70;2.80;;;22.80;99.90;;;22.92;65.01;100737.50;6083536;23;97403;-52
2023/09/12 04:53:35;;;;;;;3.13;2.45;;;22.80;99.90;;;22.81;64.55;100712.34;6086232;23;97058;-52
2023/09/12 04:56:02;;;;;;;3.00;2.05;;;22.80;99.90;;;22.74;64.89;100689.69;6089396;23;97297;-47
2023/09/12 04:58:28;;;;;;;3.70;2.40;;;22.70;99.90;;;22.74;64.95;100673.56;6087526;22;101980;-50
2023/09/12 05:00:56;;;;;;;2.45;2.17;;;22.70;99.90;;;22.75;64.85;100696.75;6058720;23;98398;-52
2023/09/12 05:03:23;;;;;;;7.10;2.92;;;22.70;99.90;;;22.85;66.56;100718.34;6083089;23;98538;-51
2023/09/12 05:05:50;;;;;;;4.28;2.90;;;22.80;99.90;;;22.88;66.33;100717.25;6086513;23;97176;-52
2023/09/12 05:08:17;;;;;;;4.50;3.05;;;22.70;99.90;;;22.89;66.55;100719.81;6085815;22;97225;-51
2023/09/12 05:10:46;;;;;;;5.93;2.92;;;22.70;99.90;;;22.91;67.09;100728.59;6060176;23;97467;-52
2023/09/12 05:13:13;;;;;;;3.90;2.72;;;22.70;99.90;;;22.87;68.45;100753.22;6086028;23;97610;-49
2023/09/12 05:15:40;;;;;;;5.35;3.53;;;22.60;99.90;;;22.85;67.03;100769.44;6083999;23;98546;-49
2023/09/12 05:18:07;;;;;;;3.53;2.70;;;22.60;99.90;;;22.85;67.06;100783.75;6081291;23;97485;-47
2023/09/12 05:20:35;;;;;;;8.35;3.53;;;22.70;99.90;;;22.85;66.95;100783.75;6084868;23;98396;-54
2023/09/12 05:23:01;;;;;;;6.13;3.60;;;22.70;99.90;;;22.85;66.97;100794.50;6085732;23;97315;-45
2023/09/12 05:25:27;;;;;;;5.65;3.95;;;22.70;99.90;;;22.86;67.07;100795.38;6082058;22;96913;-51
2023/09/12 05:27:53;;;;;;;7.93;3.63;;;22.70;99.90;;;22.86;67.01;100795.38;6078436;22;97812;-53
2023/09/12 05:30:19;;;;;;;4.78;2.95;;;22.70;99.90;;;22.84;66.91;100808.94;6081719;23;97260;-49
2023/09/12 05:32:44;;;;;;;6.60;4.13;;;22.70;99.90;;;22.84;66.77;100818.84;6089141;23;97500;-54
2023/09/12 05:35:10;;;;;;;4.35;3.15;;;22.70;99.90;;;22.88;66.56;100822.16;6089907;23;97011;-46
2023/09/12 05:37:36;;;;;;;5.05;3.67;;;22.70;99.90;;;22.87;67.03;100828.50;6090410;22;97808;-48
2023/09/12 05:40:03;;;;;;;4.45;3.67;;;22.70;99.90;;;22.87;66.66;100831.19;6091797;23;96962;-51
2023/09/12 05:42:29;;;;;;;5.20;3.30;;;22.70;99.90;;;22.87;66.94;100833.88;6085563;23;97581;-49
2023/09/12 05:44:56;;;;;;;7.03;3.30;;;22.70;99.90;;;22.88;66.68;100835.59;6088882;23;97260;-52
2023/09/12 05:47:22;;;;;;;4.78;3.15;;;22.70;99.90;;;22.88;66.76;100830.22;6086021;22;97936;-51
2023/09/12 05:49:48;;;;;;;4.85;3.22;;;22.80;99.90;;;22.91;67.11;100827.25;6087794;23;97491;-50
2023/09/12 05:52:14;;;;;;;4.57;2.53;;;22.80;99.90;;;22.91;67.44;100824.56;6087583;23;97090;-49
2023/09/12 05:54:42;;;;;;;4.53;3.28;;;22.80;99.90;;;22.92;67.18;100826.28;6060438;23;96668;-49
2023/09/12 05:57:09;;;;;;;4.57;3.28;;;22.80;99.90;;;22.94;67.19;100837.75;6086112;22;97004;-50
2023/09/12 05:59:38;;;;;;;4.68;3.28;;;22.80;99.90;;;22.93;67.56;100838.72;6086487;23;96923;-52
2023/09/12 06:02:09;;;;;;;4.43;3.20;;;22.80;99.90;;;22.93;67.58;100842.28;6087771;23;97075;-48
2023/09/12 06:04:35;;;;;;;6.15;3.20;;;22.80;99.90;;;22.93;67.56;100847.66;6087941;23;97025;-54
2023/09/12 06:07:04;;;;;;;3.90;3.03;;;22.80;99.90;;;22.94;67.79;100845.81;6064367;22;97398;-49
2023/09/12 06:09:30;;;;;;;4.55;2.47;;;22.80;99.90;;;22.89;65.63;100831.91;6086250;23;102115;-48
2023/09/12 06:11:56;;;;;;;5.78;3.00;;;22.80;99.90;;;22.89;65.37;100834.59;6086722;23;97510;-49
2023/09/12 06:14:22;;;;;;;3.97;2.55;;;22.80;99.90;;;22.83;65.20;100823.38;6086207;23;97024;-49
2023/09/12 06:16:48;;;;;;;7.53;3.85;;;22.80;99.90;;;22.88;68.04;100830.22;6085799;23;114832;-48
2023/09/12 06:19:14;;;;;;;9.38;5.32;;;22.80;99.90;;;22.87;69.25;100836.56;6086093;22;99972;-45
2023/09/12 06:21:42;;;;;;;6.65;4.22;;;22.80;99.90;;;22.85;69.08;100842.91;6086658;23;97283;-48
2023/09/12 06:24:17;;;;;;;10.23;6.03;;;22.70;99.90;;;22.87;70.27;100844.66;6084372;23;97231;-49
2023/09/12 06:26:43;;;;;;;13.35;6.78;;;22.70;99.90;;;22.89;70.01;100837.28;6084125;22;98073;-51
2023/09/12 06:29:09;;;;;;;12.32;7.20;;;22.70;99.90;;;22.88;67.69;100843.66;6084517;22;99542;-49
2023/09/12 06:31:35;;;;;;;13.85;7.75;;;22.70;99.90;;;22.86;70.05;100843.78;6081885;23;97061;-51
2023/09/12 06:34:02;;;;;;;14.40;7.77;;;22.70;99.90;;;22.88;70.80;100849.03;6086838;23;97091;-49
2023/09/12 06:36:31;;;;;;;10.68;6.20;;;22.70;99.90;;;22.87;68.31;100850.03;6083810;23;98158;-53
2023/09/12 06:38:58;;;;;;;12.23;7.20;;;22.70;99.90;;;22.89;68.13;100843.53;6085144;22;97734;-47
2023/09/12 06:41:25;;;;;;;6.40;3.55;;;22.70;99.90;;;22.85;66.44;100840.22;6084014;23;97446;-49
2023/09/12 06:43:51;;;;;;;11.30;7.13;;;22.80;99.90;;;22.87;66.20;100840.13;6086341;23;97079;-51
2023/09/12 06:46:17;;;;;;;11.35;6.45;;;22.80;99.90;;;22.92;66.99;100837.03;6083542;23;97117;-51
2023/09/12 06:48:44;;;;;;;6.20;3.83;;;22.80;99.90;;;22.89;65.15;100834.59;6085001;22;97925;-52
2023/09/12 06:51:11;;;;;;;10.80;6.30;;;22.80;99.90;;;22.95;67.48;100842.13;6061150;23;97223;-50
2023/09/12 06:53:37;;;;;;;4.50;3.20;;;22.90;99.90;;;22.91;65.14;100840.69;6072717;23;97419;-47
2023/09/12 06:56:13;;;;;;;9.98;5.97;;;22.80;99.90;;;22.98;67.73;100836.50;6077748;23;97028;-52
2023/09/12 06:58:39;;;;;;;7.40;5.00;;;22.80;99.90;;;22.97;67.05;100821.34;6071261;22;100952;-53
2023/09/12 07:01:08;;;;;;;4.05;3.17;;;22.90;99.90;;;22.91;64.98;100829.94;6075220;23;98493;-48
2023/09/12 07:03:36;;;;;;;6.90;4.17;;;22.80;99.90;;;22.91;64.99;100827.25;6068412;23;97369;-46
2023/09/12 07:06:03;;;;;;;6.00;3.70;;;22.80;99.90;;;22.93;65.75;100827.97;6072432;23;100325;-47
2023/09/12 07:08:33;;;;;;;2.75;2.10;;;22.90;99.90;;;22.77;65.27;100829.22;6073115;22;97142;-48
2023/09/12 07:11:05;;;;;;;3.73;2.93;;;22.80;99.90;;;22.77;65.25;100823.84;6074405;23;97066;-47
2023/09/12 07:13:32;;;;;;;4.72;2.78;;;22.80;99.90;;;22.81;65.10;100819.91;6047900;23;98819;-48
2023/09/12 07:15:58;;;;;;;3.05;2.40;;;22.80;99.90;;;22.85;64.84;100821.38;6076241;23;97596;-45
2023/09/12 07:18:24;;;;;;;4.68;3.05;;;22.80;99.90;;;22.91;65.29;100819.19;6073859;22;96720;-46
2023/09/12 07:21:01;;;;;;;3.33;3.03;;;22.90;99.90;;;22.95;64.76;100804.50;6072990;23;97195;-46
2023/09/12 07:23:28;;;;;;;4.05;2.92;;;22.90;99.90;;;22.94;64.64;100803.63;6073780;23;97908;-47
2023/09/12 07:25:57;;;;;;;3.45;2.10;;;22.90;99.90;;;22.81;65.09;100798.41;6068801;23;96782;-45
2023/09/12 07:28:24;;;;;;;2.63;2.38;;;22.90;99.90;;;22.85;64.80;100802.56;6073308;23;97225;-47
2023/09/12 07:30:50;;;;;;;3.42;2.67;;;22.80;99.90;;;22.84;64.90;100798.19;6073135;22;97148;-47
2023/09/12 07:33:16;;;;;;;4.32;3.03;;;22.80;99.90;;;22.87;64.96;100804.31;6064762;22;97308;-48
2023/09/12 07:35:42;;;;;;;4.07;3.05;;;22.90;99.90;;;22.88;64.80;100792.56;6072241;22;98615;-52
2023/09/12 07:38:07;;;;;;;4.82;3.05;;;22.90;99.90;;;22.96;65.63;100795.44;6069568;22;97566;-45
2023/09/12 07:40:33;;;;;;;5.18;3.03;;;22.90;99.90;;;23.01;66.66;100804.84;6049284;22;98541;-48
2023/09/12 07:42:59;;;;;;;3.53;2.80;;;23.00;99.90;;;22.89;64.90;100805.03;6051085;23;97870;-44
2023/09/12 07:45:25;;;;;;;4.70;2.42;;;22.90;99.90;;;22.82;65.07;100801.94;6073565;23;97802;-43
2023/09/12 07:47:51;;;;;;;5.97;3.13;;;22.80;99.90;;;22.93;66.41;100795.69;6071771;22;98262;-45
2023/09/12 07:50:17;;;;;;;6.90;3.20;;;22.90;99.90;;;23.06;68.69;100802.59;6076467;23;97925;-47
2023/09/12 07:52:43;;;;;;;5.72;4.13;;;23.00;99.90;;;23.09;65.48;100801.47;6074364;22;97277;-44
2023/09/12 07:55:09;;;;;;;6.22;4.53;;;23.00;99.90;;;23.17;68.70;100809.75;6080530;23;98965;-47
2023/09/12 07:57:36;;;;;;;5.55;4.07;;;23.10;99.90;;;23.14;64.44;100815.38;6079759;22;97180;-45
2023/09/12 08:00:06;;;;;;;6.43;4.13;;;23.10;99.90;;;23.19;68.19;100813.16;6076071;23;97444;-47
2023/09/12 08:02:31;;;;;;;4.55;3.70;;;23.10;99.90;;;23.22;69.72;100810.19;6071915;23;100115;-44
2023/09/12 08:04:57;;;;;;;5.50;3.83;;;23.20;99.90;;;23.27;69.49;100809.78;6069341;23;101734;-48
2023/09/12 08:07:23;;;;;;;8.90;4.43;;;23.20;99.90;;;23.26;65.46;100808.94;6072914;22;96865;-46
2023/09/12 08:09:56;;;;;;;4.88;4.05;;;23.20;99.90;;;23.22;64.87;100802.13;6074291;23;97229;-43
2023/09/12 08:12:25;;;;;;;2.97;2.53;;;23.20;99.90;;;23.20;64.45;100809.47;6049424;23;97348;-46
2023/09/12 08:14:52;;;;;;;4.30;2.60;;;23.20;99.90;;;22.99;64.88;100801.41;6069191;22;97603;-43
2023/09/12 08:17:19;;;;;;;2.92;2.50;;;23.00;99.90;;;22.87;65.16;100788.16;6069993;22;97196;-46
2023/09/12 08:19:45;;;;;;;3.35;2.30;;;22.90;99.90;;;22.88;65.22;100798.78;6064700;22;97345;-44
2023/09/12 08:22:12;;;;;;;5.60;2.83;;;22.90;99.90;;;22.90;65.56;100802.19;6078189;23;97389;-46
2023/09/12 08:24:41;;;;;;;4.90;2.70;;;22.90;99.90;;;22.82;65.28;100800.16;6073480;23;102045;-45
2023/09/12 08:27:08;;;;;;;4.05;2.50;;;22.80;99.90;;;22.91;66.93;100798.53;6072498;22;100717;-44
2023/09/12 08:29:34;;;;;;;3.40;2.60;;;22.90;99.90;;;22.89;65.04;100805.03;6071947;23;97130;-48
2023/09/12 08:32:01;;;;;;;4.57;2.92;;;22.90;99.90;;;22.90;65.06;100806.72;6072666;23;97073;-44
2023/09/12 08:34:27;;;;;;;3.63;2.80;;;22.90;99.90;;;22.84;65.04;100819.69;6072353;22;99434;-45
2023/09/12 08:36:54;;;;;;;3.45;2.45;;;22.90;99.90;;;22.82;65.21;100816.28;6075702;23;97656;-46
2023/09/12 08:39:44;;;;;;;4.32;2.95;;;22.80;99.90;;;22.85;66.12;100821.38;6046912;23;97252;-47
2023/09/12 08:42:16;;;;;;;3.22;2.40;;;22.80;99.90;;;22.81;65.22;100819.06;6073235;22;97516;-44
2023/09/12 08:44:43;;;;;;;3.38;2.33;;;22.80;99.90;;;22.79;65.23;100821.03;6064369;23;101472;-45
2023/09/12 08:47:10;;;;;;;5.10;3.13;;;22.80;99.90;;;22.85;65.39;100826.78;6071058;22;102816;-45
2023/09/12 08:49:38;;;;;;;4.15;2.60;;;22.90;99.90;;;22.87;65.19;100829.34;6071044;22;97184;-44
2023/09/12 08:52:05;;;;;;;3.05;2.30;;;22.90;99.90;;;22.73;65.81;100830.47;6074005;23;97500;-46
2023/09/12 08:54:32;;;;;;;6.18;3.42;;;22.80;99.90;;;22.88;65.98;100841.81;6046303;23;97167;-46
2023/09/12 08:57:02;;;;;;;3.95;2.75;;;22.80;99.90;;;22.99;64.94;100843.56;6072651;23;97301;-48
2023/09/12 08:59:29;;;;;;;4.47;2.63;;;23.00;99.90;;;22.95;65.12;100847.53;6067923;23;97493;-46
2023/09/12 09:01:58;;;;;;;4.80;2.58;;;23.00;99.90;;;22.89;65.02;100856.13;6042176;23;96999;-46
2023/09/12 09:04:26;;;;;;;3.70;2.83;;;22.90;99.90;;;22.90;64.76;100852.44;6070570;23;97441;-45
2023/09/12 09:06:54;;;;;;;4.55;2.83;;;22.90;99.90;;;23.00;64.53;100856.03;6047252;23;103768;-46
2023/09/12 09:09:22;;;;;;;7.00;4.35;;;23.00;99.90;;;23.09;68.08;100860.66;6048422;23;96885;-47
2023/09/12 09:11:48;;;;;;;5.03;3.70;;;23.10;99.90;;;23.10;64.39;100862.38;6072681;23;97394;-45
2023/09/12 09:14:14;;;;;;;5.43;4.07;;;23.10;99.90;;;23.17;64.94;100852.81;6072304;23;97300;-44
2023/09/12 09:16:39;;;;;;;4.10;3.03;;;23.10;99.90;;;23.23;64.15;100857.66;6076660;23;97071;-47
2023/09/12 09:19:09;;;;;;;6.18;3.65;;;23.20;99.90;;;23.21;64.07;100858.75;6072797;22;97287;-46
2023/09/12 09:21:38;;;;;;;5.00;3.63;;;23.20;99.90;;;23.29;64.20;100862.53;6074116;23;97413;-45
2023/09/12 09:24:13;;;;;;;7.10;3.47;;;23.30;99.90;;;23.26;64.51;100868.13;6066529;23;98007;-46
2023/09/12 09:26:50;;;;;;;6.88;3.80;;;23.30;99.90;;;23.35;65.91;100856.59;6068449;22;100555;-44
2023/09/12 09:29:18;;;;;;;6.93;3.80;;;23.30;99.90;;;23.38;64.14;100864.41;6073189;23;97511;-46
2023/09/12 09:31:47;;;;;;;5.22;3.25;;;23.40;99.90;;;23.47;65.40;100864.59;6077567;23;97257;-44
2023/09/12 09:34:16;;;;;;;5.55;4.13;;;23.50;99.90;;;23.48;63.74;100860.94;6048910;23;102643;-50
2023/09/12 09:36:48;;;;;;;5.75;3.97;;;23.50;99.90;;;23.49;63.46;100863.47;6075930;23;100990;-44
2023/09/12 09:39:16;;;;;;;4.18;3.47;;;23.50;99.90;;;23.39;63.64;100867.94;6077381;22;97290;-46
2023/09/12 09:41:42;;;;;;;4.55;2.95;;;23.40;99.90;;;23.49;65.31;100868.00;6076850;23;97558;-44
2023/09/12 09:44:08;;;;;;;4.28;2.45;;;23.50;99.90;;;23.52;64.63;100873.97;6076037;23;97356;-44
2023/09/12 09:46:37;;;;;;;5.63;3.47;;;23.60;99.90;;;23.56;67.68;100863.78;6071728;23;98610;-54
2023/09/12 09:49:03;;;;;;;5.47;3.17;;;23.60;99.90;;;23.60;66.12;100865.28;6074120;22;97570;-52
2023/09/12 09:51:33;;;;;;;4.18;2.40;;;23.60;99.90;;;23.64;65.24;100866.72;6074419;23;97213;-52
2023/09/12 09:54:00;;;;;;;6.75;2.78;;;23.70;99.90;;;23.61;65.33;100875.06;6070614;23;97950;-50
2023/09/12 09:56:26;;;;;;;3.63;2.58;;;23.60;99.90;;;23.67;64.68;100887.97;6072282;23;98657;-53
2023/09/12 09:58:54;;;;;;;3.00;2.70;;;23.70;99.90;;;23.76;67.52;100886.34;6073006;22;97505;-53
2023/09/12 10:01:28;;;;;;;4.72;2.97;;;23.70;99.90;;;23.73;64.73;100880.25;6072904;23;102182;-53
2023/09/12 10:04:02;;;;;;;3.38;2.55;;;23.70;99.90;;;23.81;68.35;100879.56;6071208;23;97862;-51
2023/09/12 10:06:29;;;;;;;3.00;2.42;;;23.80;99.90;;;23.77;64.96;100866.50;6071747;23;97461;-55
2023/09/12 10:08:58;;;;;;;2.80;2.17;;;23.80;99.90;;;23.82;67.08;100865.09;6071544;22;96827;-54
2023/09/12 10:11:28;;;;;;;3.83;2.60;;;23.80;99.90;;;23.79;65.18;100843.81;6070187;22;98064;-50
2023/09/12 10:13:56;;;;;;;3.15;2.47;;;23.80;99.90;;;23.83;65.04;100850.63;6073021;23;98564;-50